createdAt,value
2019-02-22T00:00:55.522Z,45.03
2019-02-22T00:03:24.003Z,46.37
2019-02-22T00:05:52.556Z,46.87
2019-02-22T00:08:21.059Z,47.27
2019-02-22T00:10:49.492Z,45.33
2019-02-22T00:13:17.996Z,45.63
2019-02-22T00:15:46.492Z,45.87
2019-02-22T00:18:14.912Z,46.00
2019-02-22T00:20:43.420Z,49.27
2019-02-22T00:23:11.896Z,45.93
2019-02-22T00:25:41.152Z,45.43
2019-02-22T00:28:09.928Z,46.50
2019-02-22T00:30:38.692Z,46.60
2019-02-22T00:33:07.220Z,44.63
2019-02-22T00:35:35.640Z,44.33
2019-02-22T00:38:04.149Z,47.10
2019-02-22T00:40:32.629Z,44.57
2019-02-22T00:43:01.048Z,46.57
2019-02-22T00:45:29.488Z,45.20
2019-02-22T00:47:57.994Z,46.97
2019-02-22T00:50:26.493Z,52.70
2019-02-22T00:52:54.948Z,52.37
2019-02-22T00:55:23.458Z,52.60
2019-02-22T00:57:51.952Z,51.10
2019-02-22T01:00:20.376Z,48.47
2019-02-22T01:02:48.797Z,48.93
2019-02-22T01:05:17.233Z,49.17
2019-02-22T01:07:45.666Z,50.33
2019-02-22T01:10:14.245Z,52.27
2019-02-22T01:12:42.677Z,52.67
2019-02-22T01:15:11.170Z,52.10
2019-02-22T01:17:39.673Z,50.37
2019-02-22T01:20:08.177Z,52.50
2019-02-22T01:22:36.605Z,52.60
2019-02-22T01:25:05.157Z,53.80
2019-02-22T01:27:33.953Z,53.07
2019-02-22T01:30:02.365Z,52.33
2019-02-22T01:32:30.845Z,51.03
2019-02-22T01:34:59.261Z,54.43
2019-02-22T01:37:27.693Z,50.43
2019-02-22T01:39:56.197Z,52.07
2019-02-22T01:42:24.631Z,50.90
2019-02-22T01:44:53.127Z,51.17
2019-02-22T01:47:21.638Z,50.43
2019-02-22T01:49:50.146Z,50.17
2019-02-22T01:52:18.554Z,51.70
2019-02-22T01:54:46.958Z,46.87
2019-02-22T01:57:16.025Z,49.27
2019-02-22T01:59:44.789Z,44.83
2019-02-22T02:02:13.286Z,43.93
2019-02-22T02:04:42.297Z,45.50
2019-02-22T02:07:11.006Z,42.20
2019-02-22T02:09:39.407Z,42.23
2019-02-22T02:12:07.898Z,47.80
2019-02-22T02:14:36.398Z,44.83
2019-02-22T02:17:05.117Z,43.10
2019-02-22T02:19:33.523Z,43.90
2019-02-22T02:22:01.944Z,44.73
2019-02-22T02:24:30.429Z,44.33
2019-02-22T02:26:59.270Z,43.30
2019-02-22T02:29:27.794Z,42.93
2019-02-22T02:31:56.294Z,41.20
2019-02-22T02:34:24.770Z,42.83
2019-02-22T02:36:53.198Z,43.00
2019-02-22T02:39:21.615Z,46.93
2019-02-22T02:41:50.034Z,44.70
2019-02-22T02:44:18.526Z,42.37
2019-02-22T02:46:46.935Z,41.70
2019-02-22T02:49:15.375Z,42.63
2019-02-22T02:51:43.880Z,42.00
2019-02-22T02:54:12.626Z,42.40
2019-02-22T02:56:41.843Z,44.30
2019-02-22T02:59:10.268Z,43.17
2019-02-22T03:01:38.831Z,41.47
2019-02-22T03:04:07.298Z,43.23
2019-02-22T03:06:44.171Z,43.30
2019-02-22T03:09:12.671Z,42.50
2019-02-22T03:11:41.077Z,43.03
2019-02-22T03:14:09.489Z,43.07
2019-02-22T03:16:38.378Z,42.87
2019-02-22T03:19:06.959Z,42.40
2019-02-22T03:21:35.967Z,41.13
2019-02-22T03:24:04.459Z,43.03
2019-02-22T03:26:32.883Z,41.63
2019-02-22T03:29:01.323Z,45.67
2019-02-22T03:31:29.734Z,43.27
2019-02-22T03:33:58.152Z,46.93
2019-02-22T03:36:26.651Z,50.33
2019-02-22T03:38:55.132Z,48.27
2019-02-22T03:41:32.284Z,43.83
2019-02-22T03:43:53.928Z,41.70
2019-02-22T03:46:22.420Z,42.83
2019-02-22T03:48:50.904Z,45.40
2019-02-22T03:51:19.401Z,44.27
2019-02-22T03:53:57.385Z,42.40
2019-02-22T03:56:25.033Z,41.37
2019-02-22T03:58:53.551Z,43.93
2019-02-22T04:01:22.120Z,50.87
2019-02-22T04:03:50.708Z,46.23
2019-02-22T04:06:19.206Z,53.83
2019-02-22T04:08:47.688Z,49.93
2019-02-22T04:11:16.242Z,44.30
2019-02-22T04:13:45.100Z,45.43
2019-02-22T04:16:13.630Z,43.77
2019-02-22T04:18:42.864Z,41.10
2019-02-22T04:21:11.679Z,39.90
2019-02-22T04:23:40.285Z,37.23
2019-02-22T04:26:08.856Z,36.63
2019-02-22T04:28:37.808Z,37.73
2019-02-22T04:31:06.586Z,36.20
2019-02-22T04:33:35.171Z,36.77
2019-02-22T04:36:03.771Z,37.83
2019-02-22T04:38:32.317Z,34.57
2019-02-22T04:41:00.781Z,37.53
2019-02-22T04:43:29.669Z,33.10
2019-02-22T04:45:58.172Z,32.67
2019-02-22T04:48:26.832Z,38.30
2019-02-22T04:50:55.471Z,32.93
2019-02-22T04:53:24.044Z,31.90
2019-02-22T04:55:52.576Z,33.50
2019-02-22T04:58:21.213Z,31.93
2019-02-22T05:00:49.717Z,31.17
2019-02-22T05:03:18.177Z,28.23
2019-02-22T05:05:46.681Z,31.93
2019-02-22T05:08:15.434Z,33.27
2019-02-22T05:10:43.981Z,35.93
2019-02-22T05:13:12.553Z,32.50
2019-02-22T05:15:41.101Z,35.33
2019-02-22T05:18:09.665Z,32.97
2019-02-22T05:20:38.211Z,36.63
2019-02-22T05:23:07.602Z,31.97
2019-02-22T05:25:36.361Z,33.83
2019-02-22T05:28:04.961Z,34.27
2019-02-22T05:30:36.335Z,36.90
2019-02-22T05:33:03.899Z,34.50
2019-02-22T05:35:32.410Z,34.00
2019-02-22T05:38:01.078Z,36.47
2019-02-22T05:40:29.985Z,33.20
2019-02-22T05:42:58.565Z,33.00
2019-02-22T05:45:27.021Z,33.10
2019-02-22T05:47:55.549Z,31.03
2019-02-22T05:50:24.074Z,35.93
2019-02-22T05:52:52.767Z,35.00
2019-02-22T05:55:21.351Z,33.47
2019-02-22T05:57:49.874Z,37.37
2019-02-22T06:00:19.062Z,38.07
2019-02-22T06:02:47.622Z,34.67
2019-02-22T06:05:16.259Z,36.37
2019-02-22T06:07:44.805Z,35.07
2019-02-22T06:10:13.425Z,38.47
2019-02-22T06:12:41.910Z,35.30
2019-02-22T06:15:10.450Z,36.33
2019-02-22T06:17:39.228Z,40.00
2019-02-22T06:20:08.097Z,38.73
2019-02-22T06:22:36.601Z,39.13
2019-02-22T06:25:05.140Z,37.97
2019-02-22T06:27:34.082Z,37.93
2019-02-22T06:30:02.582Z,39.17
2019-02-22T06:32:31.093Z,37.07
2019-02-22T06:34:59.526Z,36.63
2019-02-22T06:37:28.100Z,39.17
2019-02-22T06:39:56.621Z,36.00
2019-02-22T06:42:25.197Z,41.10
2019-02-22T06:44:53.943Z,38.40
2019-02-22T06:47:22.957Z,38.17
2019-02-22T06:49:51.644Z,41.87
2019-02-22T06:52:20.220Z,44.17
2019-02-22T06:54:48.792Z,41.10
2019-02-22T06:57:17.368Z,43.27
2019-02-22T06:59:45.796Z,43.10
2019-02-22T07:02:14.249Z,40.57
2019-02-22T07:04:43.808Z,43.20
2019-02-22T07:07:12.416Z,39.80
2019-02-22T07:09:41.376Z,44.57
2019-02-22T07:12:23.866Z,41.93
2019-02-22T07:14:52.329Z,46.00
2019-02-22T07:17:20.941Z,44.67
2019-02-22T07:19:49.453Z,47.53
2019-02-22T07:22:18.052Z,44.90
2019-02-22T07:24:46.536Z,47.80
2019-02-22T07:27:14.935Z,47.60
2019-02-22T07:29:44.209Z,49.73
2019-02-22T07:32:12.789Z,45.03
2019-02-22T07:34:41.304Z,43.23
2019-02-22T07:37:09.907Z,46.67
2019-02-22T07:39:38.746Z,51.33
2019-02-22T07:42:07.277Z,49.40
2019-02-22T07:44:35.729Z,54.13
2019-02-22T07:47:04.301Z,59.97
2019-02-22T07:49:32.925Z,61.57
2019-02-22T07:52:01.413Z,58.67
2019-02-22T07:54:30.667Z,66.33
2019-02-22T07:56:59.717Z,62.77
2019-02-22T07:59:28.717Z,69.07
2019-02-22T08:01:57.845Z,67.40
2019-02-22T08:04:27.333Z,75.50
2019-02-22T08:06:56.341Z,74.27
2019-02-22T08:09:25.229Z,81.13
2019-02-22T08:11:54.246Z,76.00
2019-02-22T08:14:23.205Z,71.17
2019-02-22T08:16:52.269Z,71.33
2019-02-22T08:19:21.646Z,70.70
2019-02-22T08:21:50.665Z,72.53
2019-02-22T08:24:19.705Z,75.80
2019-02-22T08:26:48.253Z,77.57
2019-02-22T08:29:16.749Z,66.23
2019-02-22T08:31:45.586Z,76.77
2019-02-22T08:34:14.094Z,78.77
2019-02-22T08:36:43.049Z,78.07
2019-02-22T08:39:11.529Z,74.93
2019-02-22T08:41:40.073Z,77.57
2019-02-22T08:44:08.626Z,69.90
2019-02-22T08:46:37.183Z,74.10
2019-02-22T08:49:05.694Z,69.63
2019-02-22T08:51:34.150Z,74.77
2019-02-22T08:54:02.534Z,76.03
2019-02-22T08:56:31.410Z,70.13
2019-02-22T08:58:59.846Z,69.50
2019-02-22T09:01:28.284Z,68.70
2019-02-22T09:03:56.762Z,77.00
2019-02-22T09:06:25.158Z,74.87
2019-02-22T09:08:53.627Z,74.43
2019-02-22T09:11:22.176Z,68.33
2019-02-22T09:13:50.659Z,57.37
2019-02-22T09:16:19.098Z,58.27
2019-02-22T09:18:48.034Z,55.87
2019-02-22T09:21:17.212Z,56.37
2019-02-22T09:23:46.351Z,54.87
2019-02-22T09:26:15.431Z,56.83
2019-02-22T09:28:44.423Z,58.00
2019-02-22T09:31:13.327Z,51.17
2019-02-22T09:33:42.466Z,49.90
2019-02-22T09:36:11.499Z,51.90
2019-02-22T09:38:40.435Z,54.07
2019-02-22T09:41:09.736Z,50.97
2019-02-22T09:43:39.483Z,53.60
2019-02-22T09:46:08.663Z,50.57
2019-02-22T09:48:38.127Z,53.43
2019-02-22T09:51:07.227Z,51.30
2019-02-22T09:53:36.652Z,53.93
2019-02-22T09:56:05.715Z,54.20
2019-02-22T09:58:34.795Z,55.97
2019-02-22T10:01:04.239Z,54.37
2019-02-22T10:03:33.356Z,52.70
2019-02-22T10:06:02.445Z,51.60
2019-02-22T10:08:31.816Z,48.07
2019-02-22T10:11:01.755Z,45.17
2019-02-22T10:13:31.319Z,44.60
2019-02-22T10:16:00.386Z,45.10
2019-02-22T10:18:29.463Z,43.33
2019-02-22T10:20:58.579Z,50.43
2019-02-22T10:23:27.976Z,46.30
2019-02-22T10:25:56.892Z,45.13
2019-02-22T10:28:25.948Z,45.27
2019-02-22T10:30:54.868Z,39.27
2019-02-22T10:33:23.776Z,40.05
2019-02-22T10:35:53.116Z,41.60
2019-02-22T10:38:22.069Z,42.97
2019-02-22T10:40:51.152Z,41.68
2019-02-22T10:43:20.056Z,44.63
2019-02-22T10:45:49.021Z,57.70
2019-02-22T10:48:18.460Z,41.60
2019-02-22T10:50:47.381Z,42.50
2019-02-22T10:53:16.312Z,34.07
2019-02-22T10:55:45.323Z,40.83
2019-02-22T10:58:14.232Z,39.33
2019-02-22T11:00:43.296Z,38.37
2019-02-22T11:03:12.332Z,36.63
2019-02-22T11:05:41.272Z,42.33
2019-02-22T11:08:10.324Z,36.27
2019-02-22T11:10:39.782Z,31.93
2019-02-22T11:13:08.911Z,40.70
2019-02-22T11:15:37.968Z,33.23
2019-02-22T11:18:06.945Z,35.37
2019-02-22T11:20:35.845Z,28.97
2019-02-22T11:23:04.846Z,25.53
2019-02-22T11:25:34.112Z,27.13
2019-02-22T11:28:03.116Z,31.80
2019-02-22T11:30:32.458Z,23.57
2019-02-22T11:33:01.413Z,26.13
2019-02-22T11:35:30.464Z,22.73
2019-02-22T11:37:59.422Z,26.62
2019-02-22T11:40:27.925Z,27.30
2019-02-22T11:42:57.014Z,26.80
2019-02-22T11:45:26.025Z,24.53
2019-02-22T11:47:55.329Z,24.70
2019-02-22T11:50:24.401Z,21.70
2019-02-22T11:52:53.391Z,21.03
2019-02-22T11:55:22.385Z,21.60
2019-02-22T11:57:51.673Z,25.33
2019-02-22T12:00:22.101Z,23.40
2019-02-22T12:02:51.277Z,23.47
2019-02-22T12:05:20.414Z,26.37
2019-02-22T12:07:49.775Z,26.15
2019-02-22T12:10:18.741Z,29.40
2019-02-22T12:12:48.061Z,22.70
2019-02-22T12:15:16.957Z,26.23
2019-02-22T12:17:46.977Z,24.92
2019-02-22T12:20:15.959Z,25.67
2019-02-22T12:22:44.858Z,27.43
2019-02-22T12:25:14.086Z,26.83
2019-02-22T12:27:43.074Z,28.13
2019-02-22T12:30:13.677Z,29.03
2019-02-22T12:32:42.653Z,50.87
2019-02-22T12:35:11.731Z,30.00
2019-02-22T12:37:40.753Z,40.37
2019-02-22T12:40:10.123Z,48.40
2019-02-22T12:42:39.182Z,34.83
2019-02-22T12:45:08.718Z,34.27
2019-02-22T12:47:37.694Z,34.17
2019-02-22T12:50:07.548Z,35.87
2019-02-22T12:52:36.554Z,32.67
2019-02-22T12:55:06.730Z,39.00
2019-02-22T12:57:35.690Z,35.30
2019-02-22T13:00:05.810Z,34.00
2019-02-22T13:02:34.775Z,32.73
2019-02-22T13:05:03.891Z,32.60
2019-02-22T13:07:33.058Z,32.93
2019-02-22T13:10:02.055Z,33.87
2019-02-22T13:12:31.082Z,31.60
2019-02-22T13:15:00.458Z,30.90
2019-02-22T13:17:31.091Z,33.30
2019-02-22T13:20:00.309Z,31.27
2019-02-22T13:22:29.402Z,28.57
2019-02-22T13:24:58.496Z,29.05
2019-02-22T13:27:27.462Z,30.40
2019-02-22T13:29:56.547Z,28.27
2019-02-22T13:32:25.558Z,34.40
2019-02-22T13:34:54.491Z,42.87
2019-02-22T13:37:25.405Z,41.20
2019-02-22T13:39:54.219Z,40.27
2019-02-22T13:42:23.374Z,39.00
2019-02-22T13:44:52.492Z,39.90
2019-02-22T13:47:21.546Z,47.57
2019-02-22T13:49:50.639Z,40.87
2019-02-22T13:52:20.297Z,45.27
2019-02-22T13:54:49.327Z,37.67
2019-02-22T13:57:18.751Z,41.63
2019-02-22T13:59:48.188Z,43.37
2019-02-22T14:02:17.283Z,40.67
2019-02-22T14:04:46.235Z,42.17
2019-02-22T14:07:15.231Z,41.97
2019-02-22T14:09:44.380Z,42.00
2019-02-22T14:12:13.399Z,42.97
2019-02-22T14:14:42.504Z,47.73
2019-02-22T14:17:11.678Z,45.97
2019-02-22T14:19:40.647Z,51.77
2019-02-22T14:22:09.703Z,41.97
2019-02-22T14:24:38.700Z,39.37
2019-02-22T14:27:07.687Z,41.00
2019-02-22T14:29:36.744Z,41.13
2019-02-22T14:32:05.823Z,49.43
2019-02-22T14:34:34.831Z,43.70
2019-02-22T14:37:03.897Z,37.37
2019-02-22T14:39:32.904Z,41.20
2019-02-22T14:42:02.201Z,43.27
2019-02-22T14:44:31.184Z,44.27
2019-02-22T14:47:00.300Z,40.78
2019-02-22T14:49:29.688Z,39.03
2019-02-22T14:51:58.844Z,39.77
2019-02-22T14:54:27.852Z,38.20
2019-02-22T14:56:56.904Z,35.87
2019-02-22T14:59:26.074Z,40.73
2019-02-22T15:01:55.448Z,39.13
2019-02-22T15:04:24.372Z,36.67
2019-02-22T15:06:53.600Z,38.88
2019-02-22T15:09:22.604Z,35.43
2019-02-22T15:11:51.653Z,39.53
2019-02-22T15:14:20.725Z,40.13
2019-02-22T15:17:12.193Z,38.10
2019-02-22T15:19:41.264Z,39.23
2019-02-22T15:22:10.268Z,35.30
2019-02-22T15:24:39.189Z,39.07
2019-02-22T15:27:08.220Z,41.30
2019-02-22T15:29:37.576Z,42.87
2019-02-22T15:32:06.726Z,41.87
2019-02-22T15:34:35.896Z,40.50
2019-02-22T15:37:04.953Z,42.67
2019-02-22T15:39:33.941Z,41.87
2019-02-22T15:42:03.003Z,46.63
2019-02-22T15:44:31.938Z,42.13
2019-02-22T15:47:11.430Z,38.67
2019-02-22T15:49:53.964Z,44.50
2019-02-22T15:52:22.934Z,43.17
2019-02-22T15:54:51.964Z,43.40
2019-02-22T15:57:25.092Z,45.20
2019-02-22T15:59:54.561Z,40.33
2019-02-22T16:02:23.701Z,41.60
2019-02-22T16:04:59.161Z,38.33
2019-02-22T16:07:28.948Z,36.30
2019-02-22T16:09:58.005Z,34.83
2019-02-22T16:12:27.101Z,41.43
2019-02-22T16:14:56.281Z,35.80
2019-02-22T16:17:25.601Z,35.43
2019-02-22T16:19:55.152Z,37.90
2019-02-22T16:22:24.253Z,33.37
2019-02-22T16:24:53.217Z,35.80
2019-02-22T16:27:22.581Z,34.13
2019-02-22T16:29:51.659Z,40.80
2019-02-22T16:32:20.773Z,40.60
2019-02-22T16:34:50.037Z,39.00
2019-02-22T16:37:19.374Z,35.43
2019-02-22T16:39:48.269Z,43.97
2019-02-22T16:42:17.257Z,37.87
2019-02-22T16:44:46.481Z,38.97
2019-02-22T16:47:15.454Z,37.47
2019-02-22T16:49:44.345Z,32.53
2019-02-22T16:52:13.306Z,34.30
2019-02-22T16:54:42.221Z,32.10
2019-02-22T16:57:11.454Z,29.07
2019-02-22T16:59:40.730Z,31.50
2019-02-22T17:02:09.777Z,30.93
2019-02-22T17:04:38.665Z,32.07
2019-02-22T17:07:07.634Z,31.60
2019-02-22T17:09:36.894Z,31.20
2019-02-22T17:12:06.904Z,28.53
2019-02-22T17:14:36.162Z,29.97
2019-02-22T17:17:05.214Z,45.45
2019-02-22T17:19:34.245Z,32.13
2019-02-22T17:22:03.288Z,31.17
2019-02-22T17:24:32.274Z,32.00
2019-02-22T17:27:01.166Z,26.93
2019-02-22T17:29:30.538Z,29.60
2019-02-22T17:31:59.522Z,28.63
2019-02-22T17:34:28.514Z,26.57
2019-02-22T17:36:57.504Z,30.10
2019-02-22T17:39:26.486Z,28.87
2019-02-22T17:41:55.577Z,28.60
2019-02-22T17:44:24.534Z,27.37
2019-02-22T17:46:57.556Z,29.57
2019-02-22T17:49:24.193Z,29.70
2019-02-22T17:51:53.181Z,30.97
2019-02-22T17:54:22.143Z,32.23
2019-02-22T17:56:51.542Z,33.33
2019-02-22T17:59:20.529Z,32.87
2019-02-22T18:01:49.511Z,28.10
2019-02-22T18:04:18.410Z,26.73
2019-02-22T18:06:47.699Z,30.47
2019-02-22T18:09:16.727Z,28.23
2019-02-22T18:11:45.707Z,28.37
2019-02-22T18:14:14.599Z,26.97
2019-02-22T18:16:43.531Z,29.23
2019-02-22T18:19:12.760Z,24.50
2019-02-22T18:21:41.651Z,23.10
2019-02-22T18:24:10.550Z,23.50
2019-02-22T18:26:39.691Z,21.80
2019-02-22T18:29:08.984Z,24.30
2019-02-22T18:31:37.986Z,18.13
2019-02-22T18:34:07.047Z,18.20
2019-02-22T18:36:36.059Z,17.40
2019-02-22T18:39:06.491Z,17.60
2019-02-22T18:41:35.863Z,16.73
2019-02-22T18:44:04.972Z,22.82
2019-02-22T18:46:33.956Z,16.07
2019-02-22T18:49:02.943Z,17.37
2019-02-22T18:51:31.939Z,22.87
2019-02-22T18:54:00.919Z,17.23
2019-02-22T18:56:29.968Z,18.03
2019-02-22T18:58:59.263Z,16.55
2019-02-22T19:01:28.667Z,16.93
2019-02-22T19:03:57.657Z,15.45
2019-02-22T19:06:26.992Z,15.20
2019-02-22T19:08:56.617Z,14.80
2019-02-22T19:11:25.663Z,15.93
2019-02-22T19:13:54.652Z,15.40
2019-02-22T19:16:23.632Z,16.13
2019-02-22T19:18:52.597Z,16.87
2019-02-22T19:21:21.574Z,16.47
2019-02-22T19:23:50.652Z,15.43
2019-02-22T19:26:19.628Z,16.03
2019-02-22T19:28:49.208Z,17.13
2019-02-22T19:31:18.216Z,17.60
2019-02-22T19:33:49.760Z,18.50
2019-02-22T19:36:17.860Z,16.67
2019-02-22T19:38:47.072Z,16.90
2019-02-22T19:41:16.196Z,18.50
2019-02-22T19:43:46.012Z,19.03
2019-02-22T19:46:15.020Z,16.33
2019-02-22T19:48:43.916Z,17.23
2019-02-22T19:51:12.837Z,18.57
2019-02-22T19:53:42.010Z,21.40
2019-02-22T19:56:11.064Z,20.77
2019-02-22T19:58:40.343Z,20.67
2019-02-22T20:01:11.592Z,20.03
2019-02-22T20:03:40.153Z,20.77
2019-02-22T20:06:09.175Z,20.97
2019-02-22T20:08:38.132Z,20.63
2019-02-22T20:11:07.165Z,20.70
2019-02-22T20:13:36.155Z,21.43
2019-02-22T20:16:05.201Z,23.83
2019-02-22T20:18:34.264Z,19.77
2019-02-22T20:21:03.337Z,21.10
2019-02-22T20:23:32.637Z,20.23
2019-02-22T20:26:01.653Z,19.97
2019-02-22T20:28:30.616Z,20.50
2019-02-22T20:30:59.610Z,22.50
2019-02-22T20:33:28.541Z,19.77
2019-02-22T20:35:57.597Z,20.33
2019-02-22T20:38:26.693Z,20.57
2019-02-22T20:40:55.705Z,21.40
2019-02-22T20:43:24.994Z,22.40
2019-02-22T20:45:53.973Z,21.10
2019-02-22T20:48:23.013Z,20.80
2019-02-22T20:50:51.973Z,19.23
2019-02-22T20:53:21.053Z,18.50
2019-02-22T20:55:50.599Z,20.53
2019-02-22T20:58:19.946Z,19.43
2019-02-22T21:00:49.818Z,19.93
2019-02-22T21:03:18.890Z,24.33
2019-02-22T21:05:47.877Z,22.03
2019-02-22T21:08:16.886Z,21.83
2019-02-22T21:10:45.797Z,20.30
2019-02-22T21:13:14.921Z,20.20
2019-02-22T21:15:44.063Z,23.17
2019-02-22T21:18:16.349Z,26.30
2019-02-22T21:20:43.819Z,26.60
2019-02-22T21:23:12.740Z,25.32
2019-02-22T21:25:42.074Z,22.93
2019-02-22T21:28:10.966Z,27.30
2019-02-22T21:30:40.042Z,21.27
2019-02-22T21:33:09.122Z,21.23
2019-02-22T21:35:38.187Z,21.97
2019-02-22T21:38:07.282Z,24.33
2019-02-22T21:40:36.258Z,20.27
2019-02-22T21:43:05.236Z,22.37
2019-02-22T21:45:34.165Z,20.70
2019-02-22T21:48:03.154Z,23.43
2019-02-22T21:50:32.135Z,22.10
2019-02-22T21:53:01.026Z,22.13
2019-02-22T21:55:30.307Z,23.17
2019-02-22T21:57:59.202Z,21.10
2019-02-22T22:00:28.410Z,22.43
2019-02-22T22:02:57.370Z,22.40
2019-02-22T22:05:26.419Z,21.90
2019-02-22T22:07:55.478Z,22.07
2019-02-22T22:10:25.126Z,22.90
2019-02-22T22:12:54.067Z,25.30
2019-02-22T22:15:23.082Z,22.87
2019-02-22T22:17:52.124Z,23.57
2019-02-22T22:20:21.094Z,26.00
2019-02-22T22:22:50.202Z,24.77
2019-02-22T22:25:19.254Z,21.50
2019-02-22T22:27:48.694Z,24.20
2019-02-22T22:30:17.737Z,24.20
2019-02-22T22:32:46.739Z,23.23
2019-02-22T22:35:15.725Z,24.73
2019-02-22T22:37:44.974Z,23.17
2019-02-22T22:40:14.504Z,22.57
2019-02-22T22:42:43.738Z,24.40
2019-02-22T22:45:13.097Z,22.20
2019-02-22T22:47:42.237Z,23.57
2019-02-22T22:50:12.183Z,23.90
2019-02-22T22:52:41.163Z,24.20
2019-02-22T22:55:09.783Z,24.50
2019-02-22T22:57:38.757Z,23.63
2019-02-22T23:00:21.017Z,24.07
2019-02-22T23:02:50.491Z,24.60
2019-02-22T23:05:18.903Z,28.43
2019-02-22T23:07:47.915Z,25.50
2019-02-22T23:10:17.084Z,25.10
2019-02-22T23:12:46.076Z,24.57
2019-02-22T23:15:14.672Z,23.73
2019-02-22T23:17:43.648Z,25.90
2019-02-22T23:20:12.792Z,25.70
2019-02-22T23:22:41.851Z,24.77
2019-02-22T23:25:10.912Z,26.57
2019-02-22T23:27:39.983Z,24.87
2019-02-22T23:30:09.056Z,30.90
2019-02-22T23:32:38.069Z,24.77
2019-02-22T23:36:18.088Z,25.72
2019-02-22T23:39:24.780Z,23.97
2019-02-22T23:44:06.256Z,27.53
2019-02-22T23:45:34.620Z,24.90
2019-02-22T23:48:38.156Z,24.70
2019-02-22T23:51:30.700Z,23.80
2019-02-22T23:57:44.560Z,25.70
